Time;durP1;ratioP1;P1;durP2;ratioP2;P2;SDS_P1;SDS_P2;PMS_P1;PMS_P2;Temp;Humidity;BMP_temperature;BMP_pressure;BME280_temperature;BME280_humidity;BME280_pressure;Samples;Min_cycle;Max_cycle;Signal;HPM_P1;HPM_P2
2023/03/10 13:52:25;;;;;;;9.25;4.65;;;3.10;99.90;;;;;;5086253;27;1265583;-68
2023/03/10 13:55:02;;;;;;;10.88;4.90;;;3.00;99.90;;;;;;5108221;28;20024;-68
2023/03/10 13:57:32;;;;;;;11.27;5.38;;;3.00;99.90;;;;;;5108109;28;20026;-69
2023/03/10 13:59:59;;;;;;;14.27;6.13;;;3.10;99.90;;;;;;5104901;28;20058;-67
2023/03/10 14:02:32;;;;;;;15.75;6.40;;;3.10;99.90;;;;;;5105767;28;20035;-67
2023/03/10 14:04:59;;;;;;;13.70;5.68;;;3.10;99.90;;;;;;5107096;28;20019;-68
2023/03/10 14:07:29;;;;;;;14.02;6.13;;;3.10;99.90;;;;;;5106678;28;20043;-67
2023/03/10 14:10:03;;;;;;;13.45;6.43;;;3.10;99.90;;;;;;5107079;28;20103;-65
2023/03/10 14:12:44;;;;;;;12.48;6.13;;;3.10;99.90;;;;;;5106635;28;20031;-68
2023/03/10 14:15:21;;;;;;;16.13;5.60;;;3.10;99.90;;;;;;5107183;28;20012;-68
2023/03/10 14:18:05;;;;;;;11.93;5.55;;;3.10;99.90;;;;;;5088925;28;20051;-68
2023/03/10 14:20:42;;;;;;;14.15;6.65;;;3.10;99.90;;;;;;5090780;28;20028;-68
2023/03/10 14:23:17;;;;;;;12.88;5.30;;;3.10;99.90;;;;;;5069233;28;20046;-68
2023/03/10 14:25:47;;;;;;;11.13;5.82;;;3.10;99.90;;;;;;5087650;28;20035;-68
2023/03/10 14:28:38;;;;;;;11.88;5.32;;;3.00;99.90;;;;;;5086844;28;20021;-68
2023/03/10 14:31:05;;;;;;;11.70;5.70;;;2.90;99.90;;;;;;5084182;28;20085;-67
2023/03/10 14:33:31;;;;;;;10.13;4.65;;;2.90;99.90;;;;;;5098156;28;20023;-69
2023/03/10 14:35:56;;;;;;;9.70;4.63;;;2.80;99.90;;;;;;5086282;28;20396;-66
2023/03/10 14:38:22;;;;;;;12.90;5.60;;;2.80;99.90;;;;;;5093750;28;20433;-61
2023/03/10 14:40:50;;;;;;;11.90;5.50;;;2.80;99.90;;;;;;5080571;28;20029;-63
2023/03/10 14:43:20;;;;;;;11.02;5.60;;;2.70;99.90;;;;;;5086549;28;20103;-67
2023/03/10 14:45:47;;;;;;;11.60;5.85;;;2.60;99.90;;;;;;5104161;28;20103;-63
2023/03/10 14:48:16;;;;;;;11.70;4.88;;;2.50;99.90;;;;;;5105820;28;20111;-62
2023/03/10 14:50:41;;;;;;;11.93;5.18;;;2.30;99.90;;;;;;5107172;28;20052;-64
2023/03/10 14:53:13;;;;;;;10.30;5.45;;;2.20;99.90;;;;;;5089339;28;20027;-62
2023/03/10 14:55:39;;;;;;;10.73;4.88;;;2.10;99.90;;;;;;5072681;28;20496;-64
2023/03/10 14:58:06;;;;;;;8.82;4.75;;;2.00;99.90;;;;;;5067795;28;20354;-63
2023/03/10 15:00:32;;;;;;;8.80;4.15;;;1.80;99.90;;;;;;5087365;28;20510;-65
2023/03/10 15:02:58;;;;;;;10.05;4.72;;;1.80;99.90;;;;;;5077885;28;20029;-64
2023/03/10 15:05:27;;;;;;;10.57;4.20;;;1.70;99.90;;;;;;5073172;28;20020;-66
2023/03/10 15:07:52;;;;;;;10.50;5.07;;;1.60;99.90;;;;;;5073049;28;20043;-65
2023/03/10 15:10:20;;;;;;;8.65;5.05;;;1.50;99.90;;;;;;5084616;28;20385;-64
2023/03/10 15:12:48;;;;;;;12.57;6.05;;;1.40;99.90;;;;;;5090925;28;20032;-66
2023/03/10 15:15:23;;;;;;;15.07;6.60;;;1.30;99.90;;;;;;5055363;28;20095;-66
2023/03/10 15:17:50;;;;;;;14.25;7.32;;;1.20;99.90;;;;;;5072476;28;20021;-67
2023/03/10 15:20:21;;;;;;;14.45;6.93;;;1.10;99.90;;;;;;5079864;28;20127;-68
2023/03/10 15:22:47;;;;;;;14.45;6.60;;;1.00;99.90;;;;;;5090892;28;20031;-68
2023/03/10 15:25:15;;;;;;;16.48;7.10;;;1.00;99.90;;;;;;5091476;28;20032;-67
2023/03/10 15:27:42;;;;;;;15.50;6.35;;;0.90;99.90;;;;;;5083925;28;20024;-67
2023/03/10 15:30:14;;;;;;;11.75;5.43;;;0.90;99.90;;;;;;5084895;28;20371;-65
2023/03/10 15:32:40;;;;;;;11.60;5.50;;;0.90;99.90;;;;;;5054439;28;20389;-65
2023/03/10 15:35:06;;;;;;;15.88;6.45;;;0.80;99.90;;;;;;5070075;28;20020;-64
2023/03/10 15:37:31;;;;;;;12.15;5.20;;;0.80;99.90;;;;;;5074111;28;20023;-65
2023/03/10 15:39:57;;;;;;;15.85;6.43;;;0.80;99.90;;;;;;5091221;28;20020;-64
2023/03/10 15:42:23;;;;;;;14.98;5.63;;;0.80;99.90;;;;;;5064617;28;20032;-68
2023/03/10 15:44:49;;;;;;;16.88;6.50;;;0.80;99.90;;;;;;5072603;28;20025;-65
2023/03/10 15:47:15;;;;;;;13.10;5.85;;;0.80;99.90;;;;;;5071622;28;20029;-65
2023/03/10 15:49:40;;;;;;;18.35;6.68;;;0.80;99.90;;;;;;5076272;28;20035;-65
2023/03/10 15:52:06;;;;;;;18.67;7.70;;;0.70;99.90;;;;;;5057453;28;20505;-65
2023/03/10 15:54:32;;;;;;;17.50;7.45;;;0.70;99.90;;;;;;5069573;28;20070;-64
2023/03/10 15:56:58;;;;;;;17.85;7.95;;;0.80;99.90;;;;;;5052747;28;20075;-64
2023/03/10 15:59:24;;;;;;;20.33;8.38;;;0.70;99.90;;;;;;5052175;28;20021;-65
2023/03/10 16:01:51;;;;;;;15.82;6.20;;;0.70;99.90;;;;;;5051850;28;20482;-65
2023/03/10 16:04:17;;;;;;;13.05;5.35;;;0.70;99.90;;;;;;5058905;28;20029;-67
2023/03/10 16:06:43;;;;;;;10.25;4.63;;;0.60;99.90;;;;;;5071576;28;20468;-67
2023/03/10 16:09:08;;;;;;;8.77;3.80;;;0.70;99.90;;;;;;5053524;28;20068;-64
2023/03/10 16:11:34;;;;;;;10.55;4.00;;;0.60;99.90;;;;;;5051824;28;20055;-66
2023/03/10 16:14:00;;;;;;;8.32;3.13;;;0.60;99.90;;;;;;5068453;28;20029;-67
2023/03/10 16:16:25;;;;;;;7.82;3.58;;;0.60;99.90;;;;;;5070362;28;20021;-65
2023/03/10 16:18:51;;;;;;;6.40;3.38;;;0.60;99.90;;;;;;5070906;28;20066;-67
2023/03/10 16:21:18;;;;;;;10.18;3.28;;;0.60;99.90;;;;;;5068964;28;20428;-62
2023/03/10 16:23:44;;;;;;;5.97;2.60;;;0.60;99.90;;;;;;5071162;28;20154;-64
2023/03/10 16:26:17;;;;;;;8.65;3.20;;;0.60;99.90;;;;;;5071727;28;20042;-63
2023/03/10 16:28:45;;;;;;;7.55;3.13;;;0.60;99.90;;;;;;5070257;28;20033;-67
2023/03/10 16:31:12;;;;;;;5.40;2.55;;;0.50;99.90;;;;;;5071661;28;20700;-64
2023/03/10 16:33:39;;;;;;;6.30;2.80;;;0.60;99.90;;;;;;5057380;28;20021;-63
2023/03/10 16:36:07;;;;;;;5.68;2.80;;;0.50;99.90;;;;;;5052411;28;20034;-65
2023/03/10 16:38:34;;;;;;;7.63;3.58;;;0.50;99.90;;;;;;5051372;28;20032;-63
2023/03/10 16:41:00;;;;;;;8.95;3.58;;;0.50;99.90;;;;;;5051423;28;20016;-66
2023/03/10 16:43:32;;;;;;;10.70;3.83;;;0.50;99.90;;;;;;5061406;28;20024;-63
2023/03/10 16:46:10;;;;;;;10.07;3.50;;;0.50;99.90;;;;;;5067570;28;20464;-63
2023/03/10 16:48:44;;;;;;;10.57;3.83;;;0.50;99.90;;;;;;5070799;28;20379;-65
2023/03/10 16:51:27;;;;;;;6.80;3.13;;;0.50;99.90;;;;;;5069957;28;20044;-63
2023/03/10 16:53:55;;;;;;;9.88;4.10;;;0.50;99.90;;;;;;5071346;28;20063;-63
2023/03/10 16:56:23;;;;;;;10.57;3.53;;;0.50;99.90;;;;;;5070710;28;20104;-63
2023/03/10 16:58:51;;;;;;;9.20;3.88;;;0.50;99.90;;;;;;5070758;28;20107;-62
2023/03/10 17:01:16;;;;;;;13.68;4.70;;;0.50;99.90;;;;;;5069800;28;20407;-64
2023/03/10 17:03:42;;;;;;;10.95;4.00;;;0.40;99.90;;;;;;5068687;28;20437;-63
2023/03/10 17:06:11;;;;;;;7.75;3.75;;;0.50;99.90;;;;;;5071698;28;20017;-66
2023/03/10 17:08:38;;;;;;;8.90;3.97;;;0.50;99.90;;;;;;5070771;28;20059;-63
2023/03/10 17:11:05;;;;;;;11.82;4.70;;;0.40;99.90;;;;;;5069811;28;20029;-63
2023/03/10 17:13:31;;;;;;;12.07;4.18;;;0.50;99.90;;;;;;5070941;28;20055;-65
2023/03/10 17:15:57;;;;;;;12.55;4.68;;;0.50;99.90;;;;;;5071300;28;20066;-66
2023/03/10 17:18:22;;;;;;;8.65;3.97;;;0.50;99.90;;;;;;5069587;28;20414;-62
2023/03/10 17:20:48;;;;;;;8.57;4.50;;;0.50;99.90;;;;;;5065588;28;20074;-63
2023/03/10 17:23:14;;;;;;;12.05;4.10;;;0.50;99.90;;;;;;5053009;28;20056;-63
2023/03/10 17:25:43;;;;;;;10.05;3.78;;;0.50;99.90;;;;;;5060417;28;20371;-67
2023/03/10 17:28:11;;;;;;;10.43;4.07;;;0.50;99.90;;;;;;5050484;28;20081;-65
2023/03/10 17:30:40;;;;;;;11.15;4.10;;;0.50;99.90;;;;;;5057591;28;20503;-63
2023/03/10 17:33:06;;;;;;;14.43;4.53;;;0.50;99.90;;;;;;5070170;28;20028;-62
2023/03/10 17:35:38;;;;;;;13.65;4.68;;;0.50;99.90;;;;;;5067075;28;20024;-64
2023/03/10 17:38:03;;;;;;;12.00;5.82;;;0.50;99.90;;;;;;5060890;28;20120;-64
2023/03/10 17:40:29;;;;;;;16.08;6.60;;;0.50;99.90;;;;;;5054810;28;20123;-63
2023/03/10 17:42:55;;;;;;;16.75;5.93;;;0.50;99.90;;;;;;5066934;28;20847;-64
2023/03/10 17:45:20;;;;;;;13.27;4.55;;;0.50;99.90;;;;;;5065593;28;20033;-63
2023/03/10 17:47:46;;;;;;;9.80;4.28;;;0.50;99.90;;;;;;5066604;28;20031;-64
2023/03/10 17:50:11;;;;;;;12.45;4.97;;;0.50;99.90;;;;;;5058842;28;20060;-64
2023/03/10 17:52:37;;;;;;;12.38;4.30;;;0.50;99.90;;;;;;5067808;28;20041;-65
2023/03/10 17:55:03;;;;;;;8.75;3.78;;;0.50;99.90;;;;;;5068835;28;20048;-68
2023/03/10 17:57:28;;;;;;;8.82;3.67;;;0.50;99.90;;;;;;5069338;28;20043;-67
2023/03/10 17:59:55;;;;;;;10.35;4.22;;;0.50;99.90;;;;;;5068036;28;20028;-64
2023/03/10 18:02:20;;;;;;;10.93;4.03;;;0.60;99.90;;;;;;5071653;28;20018;-63
2023/03/10 18:04:47;;;;;;;9.23;3.60;;;0.60;99.90;;;;;;5080990;28;20103;-65
2023/03/10 18:07:12;;;;;;;9.98;3.95;;;0.60;99.90;;;;;;5049796;28;20363;-67
2023/03/10 18:09:39;;;;;;;7.70;3.15;;;0.60;99.90;;;;;;5068552;28;20023;-68
2023/03/10 18:12:04;;;;;;;7.03;3.13;;;0.60;99.90;;;;;;5069764;28;20086;-66
2023/03/10 18:14:30;;;;;;;6.43;3.10;;;0.60;99.90;;;;;;5070025;28;20028;-63
2023/03/10 18:16:56;;;;;;;9.02;3.28;;;0.60;99.90;;;;;;5071231;28;20526;-64
2023/03/10 18:19:21;;;;;;;4.82;2.03;;;0.60;99.90;;;;;;5088154;28;20496;-66
2023/03/10 18:21:48;;;;;;;5.15;2.83;;;0.60;99.90;;;;;;5088123;28;20111;-65
2023/03/10 18:24:14;;;;;;;5.25;2.55;;;0.60;99.90;;;;;;5088155;28;20020;-63
2023/03/10 18:26:44;;;;;;;5.63;2.83;;;0.60;99.90;;;;;;5086674;28;20017;-66
2023/03/10 18:29:11;;;;;;;5.45;2.28;;;0.60;99.90;;;;;;5058434;28;20035;-63
2023/03/10 18:31:37;;;;;;;3.72;2.40;;;0.60;99.90;;;;;;5088368;28;20058;-66
2023/03/10 18:34:05;;;;;;;4.68;1.88;;;0.60;99.90;;;;;;5070338;28;20016;-65
2023/03/10 18:36:31;;;;;;;4.60;1.98;;;0.60;99.90;;;;;;5086980;28;20670;-69
2023/03/10 18:38:57;;;;;;;3.40;1.77;;;0.60;99.90;;;;;;5068944;28;20023;-68
2023/03/10 18:41:26;;;;;;;3.55;1.60;;;0.70;99.90;;;;;;5091800;28;20081;-66
2023/03/10 18:43:52;;;;;;;2.65;1.85;;;0.60;99.90;;;;;;5091188;28;20023;-65
2023/03/10 18:46:18;;;;;;;4.72;1.80;;;0.70;99.90;;;;;;5091555;28;20484;-70
2023/03/10 18:48:44;;;;;;;4.45;1.73;;;0.70;99.90;;;;;;5090771;28;20021;-69
2023/03/10 18:51:11;;;;;;;2.85;1.90;;;0.70;99.90;;;;;;5071473;28;20447;-70
2023/03/10 18:53:38;;;;;;;1.83;1.65;;;0.70;99.90;;;;;;5073914;28;20035;-70
2023/03/10 18:56:04;;;;;;;2.63;1.92;;;0.70;99.90;;;;;;5092066;28;20025;-69
2023/03/10 18:58:31;;;;;;;2.28;1.63;;;0.70;99.90;;;;;;5074279;28;20031;-74
2023/03/10 19:00:57;;;;;;;2.92;1.65;;;0.70;99.90;;;;;;5073777;28;20016;-75
2023/03/10 19:03:26;;;;;;;2.92;1.77;;;0.70;99.90;;;;;;5091777;28;20149;-68
2023/03/10 19:05:55;;;;;;;2.25;1.42;;;0.70;99.90;;;;;;5091752;28;20068;-68
2023/03/10 19:08:21;;;;;;;2.90;1.70;;;0.80;99.90;;;;;;5090536;28;20032;-74
2023/03/10 19:10:53;;;;;;;2.95;1.77;;;0.70;99.90;;;;;;5092603;28;20043;-73
2023/03/10 19:13:19;;;;;;;2.55;1.70;;;0.80;99.90;;;;;;5073757;28;20104;-70
2023/03/10 19:15:45;;;;;;;4.90;2.20;;;0.80;99.90;;;;;;5092864;28;20185;-72
2023/03/10 19:18:10;;;;;;;2.35;1.80;;;0.80;99.90;;;;;;5073898;28;20024;-73
2023/03/10 19:20:36;;;;;;;3.25;2.00;;;0.80;99.90;;;;;;5084734;28;20444;-65
2023/03/10 19:23:02;;;;;;;8.15;2.28;;;0.80;99.90;;;;;;5086545;28;20046;-73
2023/03/10 19:25:27;;;;;;;3.63;2.08;;;0.80;99.90;;;;;;5091518;28;20081;-68
2023/03/10 19:27:53;;;;;;;3.97;2.33;;;0.80;99.90;;;;;;5074403;28;20388;-68
2023/03/10 19:30:19;;;;;;;3.78;2.08;;;0.80;99.90;;;;;;5091236;28;20506;-65
2023/03/10 19:32:46;;;;;;;5.47;2.55;;;0.80;99.90;;;;;;5068775;28;20082;-66
2023/03/10 19:35:12;;;;;;;3.97;2.10;;;0.80;99.90;;;;;;5083142;28;20017;-67
2023/03/10 19:37:42;;;;;;;4.85;2.50;;;0.80;99.90;;;;;;5079556;28;20032;-67
2023/03/10 19:40:11;;;;;;;3.58;2.03;;;0.80;99.90;;;;;;5058162;28;20016;-71
2023/03/10 19:42:39;;;;;;;3.83;2.17;;;0.80;99.90;;;;;;5068828;28;20031;-65
2023/03/10 19:45:07;;;;;;;3.72;1.88;;;0.90;99.90;;;;;;5092103;28;20050;-65
2023/03/10 19:47:32;;;;;;;3.20;2.03;;;0.90;99.90;;;;;;5070911;28;20578;-66
2023/03/10 19:49:58;;;;;;;4.32;2.33;;;0.90;99.90;;;;;;5093937;28;20020;-67
2023/03/10 19:52:24;;;;;;;4.00;2.10;;;0.90;99.90;;;;;;5073432;28;20098;-69
2023/03/10 19:54:50;;;;;;;4.40;2.33;;;0.90;99.90;;;;;;5090291;28;20047;-71
2023/03/10 19:57:16;;;;;;;4.15;2.42;;;0.90;99.90;;;;;;5092736;28;20062;-67
2023/03/10 19:59:42;;;;;;;3.53;2.15;;;0.90;99.90;;;;;;5092661;28;20020;-70
2023/03/10 20:02:14;;;;;;;3.20;2.30;;;1.00;99.90;;;;;;5093755;28;20049;-72
2023/03/10 20:04:40;;;;;;;4.22;2.20;;;0.90;99.90;;;;;;5093902;28;20357;-68
2023/03/10 20:07:06;;;;;;;3.58;2.42;;;0.90;99.90;;;;;;5073548;28;20456;-68
2023/03/10 20:09:32;;;;;;;5.82;2.60;;;1.00;99.90;;;;;;5075723;28;20020;-73
2023/03/10 20:11:58;;;;;;;4.00;2.28;;;0.90;99.90;;;;;;5073875;28;20039;-71
2023/03/10 20:14:24;;;;;;;5.07;3.65;;;1.00;99.90;;;;;;5092941;28;20024;-71
2023/03/10 20:16:51;;;;;;;4.90;2.38;;;0.90;99.90;;;;;;5075805;28;20024;-65
2023/03/10 20:19:18;;;;;;;4.22;2.30;;;1.00;99.90;;;;;;5073442;28;20108;-66
2023/03/10 20:21:45;;;;;;;3.63;2.30;;;1.00;99.90;;;;;;5071299;28;20519;-69
2023/03/10 20:24:11;;;;;;;4.65;2.45;;;1.00;99.90;;;;;;5093604;28;20021;-74
2023/03/10 20:26:37;;;;;;;5.82;2.45;;;1.00;99.90;;;;;;5093466;28;20054;-72
2023/03/10 20:29:02;;;;;;;5.32;2.35;;;1.00;99.90;;;;;;5093096;28;20429;-73
2023/03/10 20:31:32;;;;;;;3.75;2.33;;;1.00;99.90;;;;;;5093436;28;20047;-71
2023/03/10 20:34:04;;;;;;;4.82;2.05;;;0.90;99.90;;;;;;5072163;28;20020;-72
2023/03/10 20:36:30;;;;;;;4.50;2.00;;;0.90;99.90;;;;;;5077982;28;20499;-71
2023/03/10 20:38:56;;;;;;;2.50;1.75;;;1.00;99.90;;;;;;5093064;28;20026;-71
2023/03/10 20:41:21;;;;;;;3.08;2.05;;;1.00;99.90;;;;;;5074678;28;20028;-73
2023/03/10 20:43:47;;;;;;;3.85;2.05;;;1.00;99.90;;;;;;5093340;28;20076;-66
2023/03/10 20:46:17;;;;;;;3.05;1.90;;;1.00;99.90;;;;;;5093071;28;20028;-72
2023/03/10 20:48:43;;;;;;;2.17;1.70;;;1.00;99.90;;;;;;5092644;28;20476;-70
2023/03/10 20:51:11;;;;;;;3.03;2.00;;;1.00;99.90;;;;;;5074932;28;20844;-70
2023/03/10 20:53:37;;;;;;;2.20;1.58;;;1.00;99.90;;;;;;5092400;28;20024;-68
2023/03/10 20:56:07;;;;;;;2.88;1.83;;;1.00;99.90;;;;;;5092400;28;20008;-72
2023/03/10 20:58:33;;;;;;;2.73;1.60;;;1.00;99.90;;;;;;5092795;28;20034;-67
2023/03/10 21:00:58;;;;;;;7.30;2.60;;;1.00;99.90;;;;;;5092395;28;20349;-69
2023/03/10 21:03:26;;;;;;;3.33;1.90;;;1.00;99.90;;;;;;5091911;28;20350;-71
2023/03/10 21:05:52;;;;;;;3.00;2.05;;;0.90;99.90;;;;;;5093002;28;20038;-72
2023/03/10 21:08:18;;;;;;;3.45;1.80;;;0.90;99.90;;;;;;5092366;28;20012;-70
2023/03/10 21:10:44;;;;;;;2.58;1.63;;;1.00;99.90;;;;;;5091895;28;20024;-72
2023/03/10 21:13:10;;;;;;;2.28;1.60;;;1.00;99.90;;;;;;5092516;28;20024;-72
2023/03/10 21:15:37;;;;;;;2.78;1.30;;;1.00;99.90;;;;;;5092675;28;20028;-70
2023/03/10 21:18:03;;;;;;;2.22;1.30;;;1.00;99.90;;;;;;5091987;28;20027;-71
2023/03/10 21:20:28;;;;;;;2.83;1.50;;;1.10;99.90;;;;;;5092127;28;20020;-68
2023/03/10 21:22:54;;;;;;;4.30;1.35;;;1.00;99.90;;;;;;5092466;28;20031;-70
2023/03/10 21:25:22;;;;;;;1.20;1.08;;;1.00;99.90;;;;;;5091716;28;20376;-68
2023/03/10 21:27:51;;;;;;;3.03;1.15;;;1.00;99.90;;;;;;5092877;28;20028;-67
2023/03/10 21:30:18;;;;;;;3.30;1.45;;;1.00;99.90;;;;;;5080571;28;20484;-66
2023/03/10 21:32:44;;;;;;;1.55;1.17;;;1.00;99.90;;;;;;5072001;28;20509;-66
2023/03/10 21:35:12;;;;;;;3.50;1.50;;;1.00;99.90;;;;;;5072334;28;20029;-65
2023/03/10 21:37:39;;;;;;;2.55;1.60;;;1.00;99.90;;;;;;5053459;28;20023;-64
2023/03/10 21:40:08;;;;;;;2.97;1.48;;;1.00;99.90;;;;;;5054190;28;20222;-65
2023/03/10 21:42:34;;;;;;;3.10;1.45;;;1.00;99.90;;;;;;5071677;28;20028;-64
2023/03/10 21:45:00;;;;;;;3.30;1.52;;;1.00;99.90;;;;;;5071321;28;20428;-64
2023/03/10 21:47:26;;;;;;;5.25;1.77;;;1.00;99.90;;;;;;5071829;28;20020;-65
2023/03/10 21:49:51;;;;;;;2.13;1.60;;;1.00;99.90;;;;;;5053797;28;20489;-64
2023/03/10 21:52:17;;;;;;;3.28;1.90;;;1.00;99.90;;;;;;5071015;28;20416;-64
2023/03/10 21:54:43;;;;;;;2.75;1.70;;;1.10;99.90;;;;;;5072138;28;20020;-65
2023/03/10 21:57:08;;;;;;;1.20;1.10;;;1.10;99.90;;;;;;5053786;28;20032;-64
2023/03/10 21:59:34;;;;;;;4.53;1.50;;;1.10;99.90;;;;;;5053388;28;20107;-65
2023/03/10 22:01:59;;;;;;;3.53;1.77;;;1.10;99.90;;;;;;5071872;28;20025;-65
2023/03/10 22:04:25;;;;;;;2.60;1.70;;;1.10;99.90;;;;;;5071491;28;20104;-65
2023/03/10 22:06:51;;;;;;;2.92;1.80;;;1.10;99.90;;;;;;5071403;28;20032;-64
2023/03/10 22:09:16;;;;;;;4.22;1.90;;;1.10;99.90;;;;;;5071866;28;20472;-64
2023/03/10 22:11:42;;;;;;;5.03;1.90;;;1.10;99.90;;;;;;5053902;28;20071;-64
2023/03/10 22:14:09;;;;;;;4.25;1.92;;;1.10;99.90;;;;;;5074850;28;20020;-64
